Time;durP1;ratioP1;P1;durP2;ratioP2;P2;SDS_P1;SDS_P2;PMS_P1;PMS_P2;Temp;Humidity;BMP_temperature;BMP_pressure;BME280_temperature;BME280_humidity;BME280_pressure;Samples;Min_cycle;Max_cycle;Signal;HPM_P1;HPM_P2
2021/08/05 00:02:14;;;;;;;0.40;0.10;;;;;;;18.04;67.71;100169.37;126415;1089;102904;-71
2021/08/05 00:04:42;;;;;;;0.40;0.10;;;;;;;18.03;67.83;100170.35;126498;1090;114112;-71
2021/08/05 00:07:09;;;;;;;0.40;0.10;;;;;;;18.11;67.80;100169.00;126552;1090;103036;-72
2021/08/05 00:09:38;;;;;;;0.40;0.10;;;;;;;18.24;67.59;100167.28;126543;1090;114156;-71
2021/08/05 00:12:07;;;;;;;0.40;0.10;;;;;;;18.31;67.22;100157.87;126592;1090;102878;-72
2021/08/05 00:14:34;;;;;;;0.40;0.10;;;;;;;18.22;67.23;100166.53;126462;1090;114271;-72
2021/08/05 00:17:01;;;;;;;0.40;0.10;;;;;;;18.09;67.39;100168.22;126593;1090;102972;-72
2021/08/05 00:19:29;;;;;;;0.40;0.10;;;;;;;17.99;67.60;100165.23;126573;1089;102887;-72
2021/08/05 00:21:56;;;;;;;0.40;0.10;;;;;;;18.00;67.60;100164.28;126403;1089;114094;-72
2021/08/05 00:24:23;;;;;;;0.40;0.10;;;;;;;18.03;67.40;100151.48;126514;1090;102959;-72
2021/08/05 00:26:50;;;;;;;0.40;0.10;;;;;;;18.09;67.00;100152.05;126432;1089;114315;-72
2021/08/05 00:29:17;;;;;;;0.40;0.10;;;;;;;18.10;67.07;100148.39;126581;1088;102965;-72
2021/08/05 00:31:44;;;;;;;0.40;0.10;;;;;;;18.15;67.00;100147.17;126509;1089;102886;-71
2021/08/05 00:34:12;;;;;;;0.40;0.10;;;;;;;18.05;67.27;100144.16;126469;1090;114088;-71
2021/08/05 00:36:39;;;;;;;0.40;0.10;;;;;;;17.97;67.24;100140.22;126639;1090;103434;-71
2021/08/05 00:39:06;;;;;;;0.40;0.10;;;;;;;17.96;67.25;100135.78;126440;1090;114348;-71
2021/08/05 00:41:33;;;;;;;0.40;0.10;;;;;;;17.97;67.31;100145.61;126567;1089;102916;-71
2021/08/05 00:44:02;;;;;;;0.40;0.10;;;;;;;17.93;67.43;100144.07;126542;1089;103428;-71
2021/08/05 00:46:29;;;;;;;0.40;0.10;;;;;;;17.81;67.36;100142.95;126400;1090;114098;-71
2021/08/05 00:48:57;;;;;;;0.40;0.10;;;;;;;17.75;67.69;100138.78;126562;1090;103118;-71
2021/08/05 00:51:24;;;;;;;0.40;0.10;;;;;;;17.69;67.94;100140.03;126475;1088;114114;-71
2021/08/05 00:53:51;;;;;;;0.40;0.10;;;;;;;17.70;67.56;100138.19;126566;1090;103279;-71
2021/08/05 00:56:19;;;;;;;0.40;0.10;;;;;;;17.74;67.50;100130.80;126527;1087;103466;-71
2021/08/05 00:58:46;;;;;;;0.40;0.10;;;;;;;17.74;67.55;100136.19;126446;1090;114101;-71
2021/08/05 01:01:18;;;;;;;0.40;0.10;;;;;;;17.65;67.64;100133.09;126544;1090;102975;-71
2021/08/05 01:03:49;;;;;;;0.40;0.10;;;;;;;17.61;67.79;100139.63;126442;1090;113370;-71
2021/08/05 01:06:48;;;;;;;0.40;0.10;;;;;;;17.68;67.68;100127.52;126569;1089;102952;-71
2021/08/05 01:09:39;;;;;;;0.40;0.10;;;;;;;17.72;67.43;100130.89;126433;1089;114290;-71
2021/08/05 01:12:39;;;;;;;0.40;0.10;;;;;;;17.61;67.56;100130.70;126583;1089;102896;-71
2021/08/05 01:15:17;;;;;;;0.40;0.10;;;;;;;17.52;67.86;100126.71;126269;1090;114280;-71
2021/08/05 01:17:50;;;;;;;0.40;0.10;;;;;;;17.54;67.20;100122.12;126474;1090;104579;-71
2021/08/05 01:20:19;;;;;;;0.40;0.10;;;;;;;17.51;67.65;100123.16;126560;1090;103057;-71
2021/08/05 01:23:10;;;;;;;0.40;0.10;;;;;;;17.58;67.64;100117.39;126467;1089;113415;-71
2021/08/05 01:25:44;;;;;;;0.40;0.10;;;;;;;17.61;67.40;100123.47;126489;1090;103079;-71
2021/08/05 01:28:12;;;;;;;0.40;0.10;;;;;;;17.61;67.35;100125.31;126451;1089;114069;-71
2021/08/05 01:30:44;;;;;;;0.40;0.10;;;;;;;17.65;67.43;100126.85;126523;1090;102898;-71
2021/08/05 01:33:13;;;;;;;0.40;0.10;;;;;;;17.62;67.34;100116.25;126467;1090;113662;-72
2021/08/05 01:35:42;;;;;;;0.40;0.10;;;;;;;17.52;67.67;100115.94;126637;1090;102913;-72
2021/08/05 01:38:11;;;;;;;0.40;0.10;;;;;;;17.46;67.75;100114.49;126584;1089;102909;-71
2021/08/05 01:40:39;;;;;;;0.40;0.10;;;;;;;17.43;67.93;100114.66;126483;1090;114321;-71
2021/08/05 01:43:07;;;;;;;0.40;0.10;;;;;;;17.43;67.65;100108.41;126539;1090;102959;-71
2021/08/05 01:45:37;;;;;;;0.40;0.10;;;;;;;17.45;67.53;100112.75;126487;1090;114235;-71
2021/08/05 01:48:05;;;;;;;0.40;0.10;;;;;;;17.47;67.08;100108.13;126589;1090;102947;-71
2021/08/05 01:50:33;;;;;;;0.40;0.10;;;;;;;17.49;67.56;100103.53;126518;1090;102965;-71
2021/08/05 01:53:00;;;;;;;0.40;0.10;;;;;;;17.52;67.11;100106.02;126503;1090;114159;-71
2021/08/05 01:55:28;;;;;;;0.40;0.10;;;;;;;17.55;66.79;100110.36;126509;1091;102875;-71
2021/08/05 01:57:57;;;;;;;0.40;0.10;;;;;;;17.52;66.95;100102.48;126462;1092;114800;-71
2021/08/05 02:00:24;;;;;;;0.40;0.10;;;;;;;17.43;67.65;100108.41;126579;1089;102871;-71
2021/08/05 02:02:55;;;;;;;0.40;0.10;;;;;;;17.33;67.84;100108.11;126340;1089;114289;-72
2021/08/05 02:05:28;;;;;;;0.40;0.10;;;;;;;17.28;67.94;100111.05;126387;1090;102889;-72
2021/08/05 02:08:09;;;;;;;0.40;0.10;;;;;;;17.27;67.83;100108.45;127611;1089;102897;-71
2021/08/05 02:10:41;;;;;;;0.40;0.10;;;;;;;17.30;67.92;100117.23;126467;1090;114086;-71
2021/08/05 02:13:23;;;;;;;0.40;0.10;;;;;;;17.36;67.69;100116.84;126715;1093;103050;-71
2021/08/05 02:16:13;;;;;;;0.40;0.10;;;;;;;17.36;67.67;100110.61;126437;1090;114176;-71
2021/08/05 02:18:45;;;;;;;0.40;0.10;;;;;;;17.25;67.63;100107.66;126589;1093;103977;-71
2021/08/05 02:21:16;;;;;;;0.40;0.10;;;;;;;17.22;67.62;100108.74;126503;1090;114261;-71
2021/08/05 02:23:44;;;;;;;0.40;0.10;;;;;;;17.12;67.89;100112.92;126632;1090;102900;-71
2021/08/05 02:26:11;;;;;;;0.40;0.10;;;;;;;17.01;68.13;100110.86;126449;1090;103459;-71
2021/08/05 02:29:05;;;;;;;0.40;0.10;;;;;;;16.99;68.32;100120.83;30744;1093;20096991;-71
2021/08/05 02:31:36;;;;;;;0.40;0.10;;;;;;;17.05;68.34;100117.80;126549;1090;103116;-71
2021/08/05 02:34:06;;;;;;;0.40;0.10;;;;;;;17.13;68.02;100106.59;126468;1090;114102;-71
2021/08/05 02:36:34;;;;;;;0.40;0.10;;;;;;;17.13;67.81;100114.66;126561;1090;102895;-71
2021/08/05 02:39:01;;;;;;;0.40;0.10;;;;;;;17.16;67.53;100114.47;126500;1090;114286;-71
2021/08/05 02:41:28;;;;;;;0.40;0.10;;;;;;;17.18;67.44;100115.23;126491;1093;102981;-71
2021/08/05 02:43:57;;;;;;;0.40;0.10;;;;;;;17.29;67.24;100117.32;126589;1090;103029;-71
2021/08/05 02:46:24;;;;;;;0.40;0.10;;;;;;;17.27;67.04;100119.22;126460;1090;113640;-72
2021/08/05 02:48:53;;;;;;;0.40;0.10;;;;;;;17.25;67.28;100121.13;126555;1090;103148;-71
2021/08/05 02:51:20;;;;;;;0.40;0.10;;;;;;;17.29;67.09;100118.17;126484;1090;114459;-71
2021/08/05 02:53:49;;;;;;;0.40;0.10;;;;;;;17.30;67.24;100108.27;126491;1090;103034;-72
2021/08/05 02:56:16;;;;;;;0.40;0.10;;;;;;;17.34;66.98;100112.50;126593;1089;102884;-71
2021/08/05 02:58:43;;;;;;;0.40;0.10;;;;;;;17.28;66.91;100107.50;126487;1090;114101;-72
2021/08/05 03:01:11;;;;;;;0.40;0.10;;;;;;;17.16;67.54;100107.25;126525;1090;103387;-71
2021/08/05 03:03:40;;;;;;;0.40;0.10;;;;;;;17.04;67.98;100107.98;126462;1090;114071;-72
2021/08/05 03:06:09;;;;;;;0.40;0.10;;;;;;;16.93;68.63;100110.41;126607;1090;102867;-72
2021/08/05 03:08:41;;;;;;;0.40;0.10;;;;;;;16.89;68.57;100101.63;126544;1090;103448;-71
2021/08/05 03:11:08;;;;;;;0.40;0.10;;;;;;;17.04;68.17;100103.45;126423;1089;114101;-72
2021/08/05 03:13:36;;;;;;;0.40;0.10;;;;;;;17.16;67.82;100098.33;126620;1090;102881;-72
2021/08/05 03:16:03;;;;;;;0.40;0.10;;;;;;;17.18;68.06;100097.28;126483;1090;114081;-70
2021/08/05 03:18:30;;;;;;;0.40;0.10;;;;;;;17.16;67.71;100096.49;126540;1090;102885;-71
2021/08/05 03:20:57;;;;;;;0.40;0.10;;;;;;;17.17;68.20;100089.30;126452;1090;114392;-71
2021/08/05 03:23:24;;;;;;;0.40;0.10;;;;;;;17.18;68.33;100085.63;126552;1090;102973;-72
2021/08/05 03:25:51;;;;;;;0.40;0.10;;;;;;;17.16;68.39;100083.03;126596;1090;103019;-72
2021/08/05 03:28:19;;;;;;;0.40;0.10;;;;;;;17.17;68.67;100081.23;126447;1089;114097;-72
2021/08/05 03:30:46;;;;;;;0.40;0.10;;;;;;;17.24;68.75;100073.66;126539;1090;102965;-71
2021/08/05 03:33:13;;;;;;;0.40;0.10;;;;;;;17.35;68.32;100081.95;126497;1090;114322;-72
2021/08/05 03:35:40;;;;;;;0.40;0.10;;;;;;;17.44;68.28;100081.39;126623;1089;102881;-71
2021/08/05 03:38:08;;;;;;;0.40;0.10;;;;;;;17.52;68.32;100080.94;126662;1092;102869;-71
2021/08/05 03:40:35;;;;;;;0.40;0.10;;;;;;;17.55;68.75;100083.44;126513;1090;114059;-72
2021/08/05 03:43:02;;;;;;;0.40;0.10;;;;;;;17.58;68.94;100080.58;126558;1088;102875;-71
2021/08/05 03:45:29;;;;;;;0.40;0.10;;;;;;;17.63;68.97;100078.45;126526;1089;114098;-71
2021/08/05 03:47:56;;;;;;;0.40;0.10;;;;;;;17.75;68.85;100084.91;126555;1089;102953;-71
2021/08/05 03:50:24;;;;;;;0.40;0.10;;;;;;;17.79;69.61;100082.91;126599;1090;102904;-70
2021/08/05 03:52:51;;;;;;;0.40;0.10;;;;;;;17.82;69.88;100085.40;126468;1088;114132;-70
2021/08/05 03:55:18;;;;;;;0.40;0.10;;;;;;;17.86;69.84;100081.55;126590;1090;102980;-72
2021/08/05 03:57:46;;;;;;;0.40;0.10;;;;;;;17.97;69.46;100073.72;126535;1090;114101;-72
2021/08/05 04:00:17;;;;;;;0.40;0.10;;;;;;;17.95;70.12;100075.63;126568;1090;102912;-71
2021/08/05 04:02:44;;;;;;;0.40;0.10;;;;;;;17.96;70.54;100085.45;126533;1090;114270;-71
2021/08/05 04:05:12;;;;;;;0.40;0.10;;;;;;;17.92;70.64;100081.22;126571;1090;102911;-71
2021/08/05 04:07:40;;;;;;;0.40;0.10;;;;;;;17.87;71.03;100091.38;126562;1090;103023;-72
2021/08/05 04:10:08;;;;;;;0.40;0.10;;;;;;;17.91;71.16;100090.22;126506;1090;114114;-71
2021/08/05 04:12:36;;;;;;;0.40;0.10;;;;;;;17.96;71.02;100089.98;126547;1090;102991;-71
2021/08/05 04:15:04;;;;;;;0.40;0.10;;;;;;;18.11;71.14;100082.76;126488;1089;114752;-71
2021/08/05 04:17:31;;;;;;;0.40;0.10;;;;;;;18.13;70.82;100086.23;126585;1088;103339;-72
2021/08/05 04:19:58;;;;;;;0.40;0.10;;;;;;;18.19;71.05;100081.33;126580;1089;102975;-72
2021/08/05 04:22:25;;;;;;;0.40;0.10;;;;;;;18.26;70.40;100080.92;126449;1090;114097;-72
2021/08/05 04:24:52;;;;;;;0.40;0.10;;;;;;;18.40;70.16;100078.21;126517;1090;102876;-71
2021/08/05 04:27:20;;;;;;;0.40;0.10;;;;;;;18.52;69.75;100084.64;126508;1090;114253;-71
2021/08/05 04:29:47;;;;;;;0.40;0.10;;;;;;;18.63;69.49;100081.25;126546;1088;102983;-71
2021/08/05 04:32:14;;;;;;;0.40;0.10;;;;;;;18.61;70.05;100091.29;126554;1088;102972;-71
2021/08/05 04:34:41;;;;;;;0.40;0.10;;;;;;;18.60;70.23;100079.61;126507;1090;114327;-71
2021/08/05 04:37:08;;;;;;;0.40;0.10;;;;;;;18.65;69.97;100077.48;126635;1090;102881;-72
2021/08/05 04:39:36;;;;;;;0.40;0.10;;;;;;;18.77;69.72;100081.22;126541;1090;114088;-71
2021/08/05 04:42:04;;;;;;;0.40;0.10;;;;;;;18.83;69.66;100070.03;126504;1089;103000;-71
2021/08/05 04:44:31;;;;;;;0.40;0.10;;;;;;;18.87;69.61;100067.97;126604;1090;102953;-72
2021/08/05 04:46:58;;;;;;;0.40;0.10;;;;;;;18.95;69.46;100071.05;126437;1090;114088;-72
2021/08/05 04:49:25;;;;;;;0.40;0.10;;;;;;;18.97;69.93;100071.83;126620;1093;102900;-71
2021/08/05 04:51:53;;;;;;;0.40;0.10;;;;;;;18.99;69.04;100086.10;126534;1090;114192;-71
2021/08/05 04:54:21;;;;;;;0.40;0.10;;;;;;;19.09;69.53;100080.95;126536;1090;102871;-71
2021/08/05 04:56:49;;;;;;;0.40;0.10;;;;;;;19.11;69.43;100084.39;126541;1090;114415;-71
2021/08/05 04:59:16;;;;;;;0.40;0.10;;;;;;;19.23;68.96;100080.00;126563;1090;102898;-71
2021/08/05 05:01:43;;;;;;;0.40;0.10;;;;;;;19.18;69.78;100080.33;126556;1090;102906;-71
2021/08/05 05:04:11;;;;;;;0.40;0.10;;;;;;;19.12;69.98;100080.73;126505;1089;114100;-71
2021/08/05 05:06:39;;;;;;;0.40;0.10;;;;;;;18.98;69.49;100084.36;126500;1092;102991;-71
2021/08/05 05:09:06;;;;;;;0.40;0.10;;;;;;;18.96;70.28;100080.03;126514;1090;114351;-71
2021/08/05 05:11:33;;;;;;;0.40;0.10;;;;;;;18.97;70.46;100079.08;126544;1090;102900;-71
2021/08/05 05:14:00;;;;;;;0.40;0.10;;;;;;;18.84;70.29;100079.83;126562;1090;102911;-72
2021/08/05 05:16:28;;;;;;;0.40;0.10;;;;;;;18.80;70.99;100077.45;126500;1088;114651;-71
2021/08/05 05:18:55;;;;;;;0.40;0.10;;;;;;;18.73;70.68;100079.69;126587;1088;102966;-72
2021/08/05 05:21:22;;;;;;;0.40;0.10;;;;;;;18.79;70.87;100076.56;126481;1089;114306;-71
2021/08/05 05:23:50;;;;;;;0.40;0.00;;;;;;;18.83;71.10;100079.94;126526;1088;103030;-71
2021/08/05 05:26:17;;;;;;;0.40;0.10;;;;;;;18.75;70.93;100077.73;126577;1088;102906;-72
2021/08/05 05:28:44;;;;;;;0.40;0.10;;;;;;;18.66;71.20;100068.44;126496;1088;114093;-72
2021/08/05 05:31:11;;;;;;;0.40;0.10;;;;;;;18.69;71.25;100070.92;126625;1089;103019;-72
2021/08/05 05:33:38;;;;;;;0.40;0.10;;;;;;;18.71;71.11;100068.13;126468;1090;114153;-78
2021/08/05 05:36:06;;;;;;;0.40;0.10;;;;;;;18.70;71.59;100071.81;126528;1090;102981;-77
2021/08/05 05:38:34;;;;;;;0.40;0.10;;;;;;;18.68;71.64;100074.58;126578;1090;102972;-77
2021/08/05 05:41:02;;;;;;;0.40;0.00;;;;;;;18.75;71.20;100063.40;126486;1090;112915;-77
2021/08/05 05:43:30;;;;;;;0.40;0.10;;;;;;;18.90;71.07;100075.03;126560;1090;102971;-77
2021/08/05 05:45:57;;;;;;;0.40;0.10;;;;;;;18.90;71.03;100075.92;126493;1090;114256;-77
2021/08/05 05:48:25;;;;;;;0.40;0.10;;;;;;;19.04;70.40;100066.89;126528;1090;103204;-77
2021/08/05 05:50:52;;;;;;;0.40;0.10;;;;;;;19.00;70.45;100066.22;126552;1090;114472;-78
2021/08/05 05:53:23;;;;;;;0.40;0.10;;;;;;;19.06;70.64;100062.27;126571;1090;102970;-78
2021/08/05 05:55:54;;;;;;;0.40;0.10;;;;;;;19.10;70.88;100061.09;126574;1089;102879;-78
2021/08/05 05:58:22;;;;;;;0.40;0.10;;;;;;;19.29;69.92;100057.99;126505;1089;114111;-77
2021/08/05 06:00:51;;;;;;;0.40;0.10;;;;;;;19.37;69.83;100062.88;126551;1088;102937;-77
2021/08/05 06:03:19;;;;;;;0.40;0.10;;;;;;;19.43;70.19;100053.48;126513;1090;114358;-78
2021/08/05 06:05:47;;;;;;;0.40;0.10;;;;;;;19.35;69.99;100045.90;126625;1088;103026;-76
2021/08/05 06:08:14;;;;;;;0.40;0.10;;;;;;;19.36;70.28;100053.89;126611;1090;102978;-78
2021/08/05 06:10:42;;;;;;;0.40;0.10;;;;;;;19.53;70.13;100055.44;126516;1089;114228;-78
2021/08/05 06:13:09;;;;;;;0.40;0.10;;;;;;;19.62;70.08;100044.95;126628;1088;102862;-78
2021/08/05 06:15:37;;;;;;;0.40;0.10;;;;;;;19.55;68.85;100048.09;126508;1090;114079;-78
2021/08/05 06:18:04;;;;;;;0.40;0.10;;;;;;;19.46;69.09;100045.16;126573;1090;102973;-78
2021/08/05 06:20:32;;;;;;;0.40;0.00;;;;;;;19.40;69.04;100038.34;126611;1089;103073;-78
2021/08/05 06:23:00;;;;;;;0.40;0.10;;;;;;;19.50;69.82;100043.97;126465;1089;113143;-78
2021/08/05 06:25:27;;;;;;;0.40;0.10;;;;;;;19.54;68.33;100035.56;126556;1090;103026;-79
2021/08/05 06:28:04;;;;;;;0.40;0.10;;;;;;;19.43;68.91;100032.72;126452;1090;114272;-80
2021/08/05 06:30:32;;;;;;;0.40;0.00;;;;;;;19.42;68.90;100033.72;126665;1090;102981;-79
2021/08/05 06:33:00;;;;;;;0.40;0.10;;;;;;;19.45;68.65;100030.80;126519;1090;115518;-79
2021/08/05 06:35:27;;;;;;;0.40;0.10;;;;;;;19.43;68.52;100034.58;126555;1090;102903;-79
2021/08/05 06:37:54;;;;;;;0.40;0.10;;;;;;;19.38;68.35;100035.76;126549;1090;103011;-78
2021/08/05 06:40:22;;;;;;;0.40;0.10;;;;;;;19.40;68.07;100027.55;126513;1090;114140;-79
2021/08/05 06:42:50;;;;;;;0.40;0.10;;;;;;;19.38;68.13;100024.11;126507;1090;103106;-78
2021/08/05 06:45:17;;;;;;;0.40;0.10;;;;;;;19.49;68.25;100015.25;126390;1090;114403;-78
2021/08/05 06:47:46;;;;;;;0.40;0.10;;;;;;;19.52;67.47;100023.98;126506;1090;102904;-78
2021/08/05 06:50:16;;;;;;;0.40;0.10;;;;;;;19.52;67.58;100025.83;126649;1093;102969;-78
2021/08/05 06:52:46;;;;;;;0.40;0.10;;;;;;;19.52;67.63;100026.69;126509;1090;114282;-78
2021/08/05 06:55:15;;;;;;;0.40;0.00;;;;;;;19.53;68.03;100024.87;126589;1090;103001;-77
2021/08/05 06:57:43;;;;;;;0.40;0.00;;;;;;;19.43;66.18;100024.63;126465;1090;114164;-79
2021/08/05 07:00:13;;;;;;;0.40;0.10;;;;;;;19.33;67.05;100029.81;126583;1090;103036;-79
2021/08/05 07:02:40;;;;;;;0.40;0.10;;;;;;;19.30;67.29;100021.92;126611;1092;104972;-78
2021/08/05 07:05:12;;;;;;;0.40;0.10;;;;;;;19.29;67.12;100019.34;126432;1088;112818;-76
2021/08/05 07:07:39;;;;;;;0.40;0.10;;;;;;;19.35;67.70;100021.59;126591;1090;103368;-77
2021/08/05 07:10:09;;;;;;;0.40;0.00;;;;;;;19.44;67.34;100017.41;126533;1090;114162;-78
2021/08/05 07:12:37;;;;;;;0.40;0.08;;;;;;;19.47;67.00;100014.48;126576;1090;103000;-79
2021/08/05 07:15:05;;;;;;;0.40;0.00;;;;;;;19.42;67.17;100017.52;126453;1090;114642;-79
2021/08/05 07:17:36;;;;;;;0.40;0.10;;;;;;;19.37;66.84;100011.56;126523;1090;102900;-78
2021/08/05 07:20:05;;;;;;;0.40;0.10;;;;;;;19.41;67.44;100007.68;126554;1089;103043;-78
2021/08/05 07:22:33;;;;;;;0.40;0.10;;;;;;;19.52;67.36;100009.63;126457;1089;114149;-78
2021/08/05 07:25:00;;;;;;;0.40;0.10;;;;;;;19.60;66.81;100011.80;126575;1090;103013;-79
2021/08/05 07:27:28;;;;;;;0.40;0.00;;;;;;;19.60;65.08;100011.80;126462;1090;114385;-79
2021/08/05 07:29:55;;;;;;;0.40;0.10;;;;;;;19.57;65.04;100011.98;126570;1090;104148;-79
2021/08/05 07:32:24;;;;;;;0.40;0.10;;;;;;;19.48;65.20;100011.67;126516;1090;102876;-79
2021/08/05 07:34:51;;;;;;;0.40;0.10;;;;;;;19.48;65.58;100006.27;126462;1090;113143;-79
2021/08/05 07:37:19;;;;;;;0.40;0.10;;;;;;;19.53;65.67;100008.66;126590;1090;103329;-78
2021/08/05 07:39:46;;;;;;;0.40;0.10;;;;;;;19.59;65.28;100005.51;126499;1090;114126;-78
2021/08/05 07:42:15;;;;;;;0.40;0.10;;;;;;;19.74;64.89;100002.70;126623;1088;102895;-79
2021/08/05 07:44:43;;;;;;;0.40;0.10;;;;;;;19.65;64.43;99998.83;126555;1089;102893;-79
2021/08/05 07:47:11;;;;;;;0.40;0.10;;;;;;;19.65;65.07;99994.28;126498;1090;112683;-78
2021/08/05 07:49:39;;;;;;;0.40;0.10;;;;;;;19.74;64.73;100003.58;126573;1090;102876;-79
2021/08/05 07:52:07;;;;;;;0.40;0.10;;;;;;;19.75;64.42;99996.33;126475;1090;114278;-79
2021/08/05 07:54:34;;;;;;;0.40;0.10;;;;;;;19.81;65.04;99990.53;126598;1088;103021;-80
2021/08/05 07:57:03;;;;;;;0.40;0.10;;;;;;;19.99;65.66;99996.43;126498;1090;114670;-80
2021/08/05 07:59:31;;;;;;;0.40;0.10;;;;;;;20.13;64.89;99985.48;126572;1092;102905;-79
2021/08/05 08:01:59;;;;;;;0.40;0.10;;;;;;;20.33;64.85;99988.58;126539;1090;103030;-79
2021/08/05 08:04:27;;;;;;;0.40;0.10;;;;;;;20.50;63.42;99981.89;126509;1090;114220;-80
2021/08/05 08:06:54;;;;;;;0.40;0.03;;;;;;;20.52;64.42;99980.80;126594;1090;102888;-80
2021/08/05 08:09:21;;;;;;;0.40;0.00;;;;;;;20.57;63.55;99990.44;126521;1090;113945;-80
2021/08/05 08:11:50;;;;;;;0.40;0.00;;;;;;;20.56;62.28;99981.44;126631;1090;103424;-80
2021/08/05 08:14:17;;;;;;;0.40;0.07;;;;;;;20.41;61.18;99983.45;127015;1090;102873;-81
2021/08/05 08:16:45;;;;;;;0.40;0.10;;;;;;;20.27;61.91;99984.45;127003;1089;115219;-80
2021/08/05 08:19:14;;;;;;;0.40;0.00;;;;;;;20.27;62.02;99979.05;127095;1090;102910;-80
2021/08/05 08:21:41;;;;;;;0.40;0.00;;;;;;;20.28;62.44;99979.94;126931;1090;112919;-81
2021/08/05 08:24:10;;;;;;;0.40;0.00;;;;;;;20.32;62.92;99978.73;126980;1089;102867;-80
2021/08/05 08:26:38;;;;;;;0.40;0.00;;;;;;;20.42;63.10;99978.90;127041;1089;103036;-80
2021/08/05 08:29:07;;;;;;;0.40;0.10;;;;;;;20.45;61.79;99974.13;127073;1090;112656;-80
2021/08/05 08:31:35;;;;;;;0.40;0.10;;;;;;;20.52;62.38;99978.09;126781;1090;103032;-75
2021/08/05 08:34:02;;;;;;;0.40;0.10;;;;;;;20.42;62.03;99966.25;126411;1090;114008;-77
2021/08/05 08:36:30;;;;;;;0.40;0.00;;;;;;;20.36;62.17;99961.30;126494;1090;102939;-79
2021/08/05 08:38:58;;;;;;;0.40;0.10;;;;;;;20.48;62.81;99957.66;126332;1090;114100;-78
2021/08/05 08:41:28;;;;;;;0.40;0.00;;;;;;;20.53;62.22;99958.19;126496;1090;102882;-78
2021/08/05 08:43:55;;;;;;;0.40;0.00;;;;;;;20.52;61.08;99955.59;126480;1089;103130;-79
2021/08/05 08:46:24;;;;;;;0.40;0.00;;;;;;;20.36;61.81;99951.33;126444;1090;114112;-79
2021/08/05 08:48:53;;;;;;;0.40;0.00;;;;;;;20.21;60.69;99950.63;126589;1088;102911;-79
2021/08/05 08:51:21;;;;;;;0.40;0.00;;;;;;;20.14;61.55;99952.07;126436;1090;114202;-79
2021/08/05 08:53:52;;;;;;;0.40;0.00;;;;;;;20.10;62.11;99955.98;126616;1090;104011;-79
2021/08/05 08:56:23;;;;;;;0.40;0.00;;;;;;;20.07;61.40;99949.92;126634;1090;103044;-79
2021/08/05 08:58:52;;;;;;;0.40;0.00;;;;;;;20.01;61.99;99956.66;126568;1090;114096;-79
2021/08/05 09:01:22;;;;;;;0.40;0.00;;;;;;;19.96;62.51;99956.97;126622;1090;102972;-79
2021/08/05 09:03:50;;;;;;;0.40;0.00;;;;;;;19.95;62.98;99952.53;126473;1090;112946;-79
2021/08/05 09:06:18;;;;;;;0.40;0.00;;;;;;;19.99;62.16;99953.19;126631;1090;102946;-79
2021/08/05 09:08:46;;;;;;;0.40;0.00;;;;;;;20.07;63.13;99952.63;126593;1089;103413;-78
2021/08/05 09:11:14;;;;;;;0.40;0.03;;;;;;;20.11;62.13;99948.72;126553;1090;113924;-78
2021/08/05 09:13:41;;;;;;;0.40;0.00;;;;;;;20.07;62.46;99939.97;126588;1090;103047;-78
2021/08/05 09:16:29;;;;;;;0.40;0.00;;;;;;;20.04;62.16;99943.75;126470;1090;115266;-78
2021/08/05 09:19:14;;;;;;;0.40;0.03;;;;;;;19.99;62.04;99939.67;126736;1089;102907;-79
2021/08/05 09:22:01;;;;;;;0.40;0.00;;;;;;;19.95;62.23;99938.17;126592;1089;113934;-78
2021/08/05 09:24:30;;;;;;;0.40;0.00;;;;;;;19.88;61.36;99937.75;126575;1090;102918;-78
2021/08/05 09:27:02;;;;;;;0.40;0.10;;;;;;;19.84;62.54;99939.80;126603;1090;114200;-80
2021/08/05 09:29:30;;;;;;;0.40;0.00;;;;;;;19.83;62.72;99939.92;127035;1088;102968;-78
2021/08/05 09:32:09;;;;;;;0.40;0.00;;;;;;;19.92;63.05;99936.55;126829;1090;102885;-77
2021/08/05 09:34:50;;;;;;;0.40;0.00;;;;;;;20.00;63.28;99944.95;126262;1090;114048;-79
2021/08/05 09:37:19;;;;;;;0.40;0.10;;;;;;;19.98;62.65;99935.23;127090;1090;104126;-81
2021/08/05 09:39:47;;;;;;;0.40;0.00;;;;;;;19.97;62.98;99939.79;126989;1090;114041;-79
2021/08/05 09:42:16;;;;;;;0.40;0.05;;;;;;;19.94;63.19;99937.32;127080;1091;101713;-80
2021/08/05 09:44:46;;;;;;;0.40;0.08;;;;;;;19.94;63.40;99940.02;127101;1090;103036;-80
2021/08/05 09:47:17;;;;;;;0.40;0.10;;;;;;;20.04;63.74;99948.31;126952;1090;112638;-81
2021/08/05 09:49:49;;;;;;;0.40;0.10;;;;;;;20.10;64.44;99946.98;127163;1090;102889;-80
2021/08/05 09:52:28;;;;;;;0.40;0.10;;;;;;;20.14;64.72;99943.96;127127;1093;113886;-80
2021/08/05 09:54:56;;;;;;;0.40;0.08;;;;;;;20.24;65.50;99937.88;127150;1090;102971;-81
2021/08/05 09:57:43;;;;;;;0.40;0.00;;;;;;;20.26;65.53;99944.89;126958;1093;114400;-80
2021/08/05 10:00:18;;;;;;;0.40;0.00;;;;;;;20.25;65.35;99928.80;127036;1090;102833;-81
2021/08/05 10:02:51;;;;;;;0.40;0.00;;;;;;;20.32;66.27;99930.05;127076;1090;103026;-81
2021/08/05 10:05:24;;;;;;;0.40;0.10;;;;;;;20.37;64.11;99933.28;126894;1090;113078;-81
2021/08/05 10:07:56;;;;;;;0.40;0.10;;;;;;;20.47;65.47;99931.61;126945;1092;102960;-80
2021/08/05 10:10:29;;;;;;;0.40;0.00;;;;;;;20.52;65.34;99928.55;126919;1093;113865;-80
2021/08/05 10:13:01;;;;;;;0.40;0.00;;;;;;;20.44;65.00;99928.27;127000;1092;102968;-80
2021/08/05 10:15:30;;;;;;;0.40;0.00;;;;;;;20.42;65.71;99920.27;126833;1090;114504;-80
2021/08/05 10:18:00;;;;;;;0.40;0.00;;;;;;;20.41;66.21;99918.54;126777;1089;102900;-79
2021/08/05 10:20:30;;;;;;;0.40;0.00;;;;;;;20.39;65.89;99912.38;126531;1088;103366;-79
2021/08/05 10:22:58;;;;;;;0.40;0.00;;;;;;;20.40;65.88;99921.36;126516;1090;113977;-79
2021/08/05 10:25:28;;;;;;;0.40;0.00;;;;;;;20.34;66.35;99922.66;126653;1089;102969;-79
2021/08/05 10:28:00;;;;;;;0.40;0.10;;;;;;;20.34;66.80;99901.03;126431;1090;112956;-79
2021/08/05 10:30:29;;;;;;;0.40;0.10;;;;;;;20.42;67.08;99905.87;126695;1088;102954;-79
2021/08/05 10:32:57;;;;;;;0.40;0.00;;;;;;;20.42;66.28;99901.34;126429;1089;114396;-79
2021/08/05 10:35:25;;;;;;;0.40;0.10;;;;;;;20.44;66.67;99902.07;126576;1093;102993;-80
2021/08/05 10:37:53;;;;;;;0.40;0.00;;;;;;;20.45;67.64;99898.39;126569;1093;103300;-80
2021/08/05 10:40:22;;;;;;;0.40;0.10;;;;;;;20.54;67.36;99899.55;126489;1089;112723;-80
2021/08/05 10:42:52;;;;;;;0.40;0.10;;;;;;;20.65;67.71;99894.16;126619;1090;103036;-79
2021/08/05 10:45:21;;;;;;;0.40;0.00;;;;;;;20.86;67.87;99893.54;126549;1093;112963;-79
2021/08/05 10:47:50;;;;;;;0.40;0.10;;;;;;;20.85;66.57;99892.66;126603;1090;103306;-80
2021/08/05 10:50:20;;;;;;;0.40;0.10;;;;;;;20.82;66.34;99886.61;126599;1090;102883;-79
2021/08/05 10:52:55;;;;;;;0.40;0.00;;;;;;;20.89;67.32;99893.29;126420;1090;114011;-80
2021/08/05 10:55:31;;;;;;;0.40;0.00;;;;;;;21.06;66.56;99889.27;126601;1093;102934;-79
2021/08/05 10:58:28;;;;;;;0.40;0.00;;;;;;;20.99;65.45;99891.59;126489;1090;113941;-79
2021/08/05 11:01:02;;;;;;;0.40;0.00;;;;;;;20.93;65.29;99899.34;126639;1090;102898;-80
2021/08/05 11:03:37;;;;;;;0.40;0.07;;;;;;;20.84;65.85;99898.19;126571;1089;113121;-80
2021/08/05 11:06:08;;;;;;;0.40;0.00;;;;;;;20.76;66.00;99896.07;126644;1090;102867;-80
2021/08/05 11:08:35;;;;;;;0.40;0.00;;;;;;;20.67;66.09;99896.75;127015;1090;103015;-80
2021/08/05 11:11:24;;;;;;;0.40;0.00;;;;;;;20.80;66.44;99900.27;126640;1090;114152;-80
2021/08/05 11:14:06;;;;;;;0.40;0.00;;;;;;;20.80;66.25;99902.97;126546;1090;102866;-79
2021/08/05 11:16:51;;;;;;;0.40;0.00;;;;;;;20.83;66.81;99901.88;126575;1090;112870;-80
2021/08/05 11:19:20;;;;;;;0.40;0.00;;;;;;;20.82;66.43;99898.31;126664;1090;102909;-80
2021/08/05 11:21:48;;;;;;;0.40;0.00;;;;;;;20.87;66.81;99901.53;126632;1090;112883;-80
2021/08/05 11:24:46;;;;;;;0.40;0.00;;;;;;;20.89;66.25;99898.70;126661;1088;102972;-79